LFSB

Basel/Mulhouse/Freiburg

Airport
ICAO code
LFSB
Summary
ICAO Region
EUR
ICAO Territory
Location

Saint-Louis, Alsace,

Coordinates
47° 35' 24" N , 7° 31' 45" E
KCC
Metar
Observation
LFSB 012230Z AUTO 34006KT 8000 BKN008 OVC040 03/02 Q1021 TEMPO 3000 -DZ BR OVC004
Station
Bale-Mulhouse
Date/Time
2022-12-01 22:30:00
Wind direction
340°
Wind speed
06 kts
Lowest cloud amount
broken clouds
Temperature
3°C
Dew point
2°C
Humidity
93%
QNH
1021 hPa
Weather condition
n/a

Description

EuroAirport Basel-Mulhouse-Freiburg is an international airport 6 km northwest of Basel (Switzerland), 22 km southeast of Mulhouse (France), and 70 km south of Freiburg (Germany). It is located in France, on the administrative territory of the commune of Saint-Louis near the Swiss and German borders.

Climatology

Temperate Marine climate/Oceanic climate (Köppen climate classification Cfb). Moderately cool summer and comparatively warm winter. Prevailing south-westerly winds from the Atlantic Ocean.

Runways

Designator Length Width Surface Rops
8/26 1819 60 CON Yes/Yes
15/33 3900 60 CON Yes/Yes

SKYbrary Partners:

Safety knowledge contributed by: